.
WxDataArchive / Data Records for 2012-10-31
2012-10-30 October 2012 2012-11-01

Data Records for Wednesday, 31 October 2012

Time	Temp	Chill	HIndex	Humid	Dewpt	 Wind 	HiWind	WindDir	Rain 	Barom 
-----	----	-----	------	-----	-----	------	------	-------	-----	----- 
00:00	38.3	38.3	38.3	89	35.3	1	4	338	0.00	29.624 
00:05	38.3	38.3	38.3	89	35.3	1	5	292	0.00	29.624 
00:10	38.2	38.2	38.2	89	35.2	0	3	292	0.00	29.624 
00:15	38.2	38.2	38.2	89	35.2	1	2	315	0.00	29.624 
00:20	38.2	38.2	38.2	89	35.2	2	5	292	0.00	29.624 
00:25	37.9	37.9	37.9	89	35.0	2	5	338	0.00	29.624 
00:30	37.9	37.9	37.9	90	35.2	1	5	315	0.01	29.624 
00:35	37.8	37.8	37.8	90	35.1	1	3	315	0.00	29.624 
00:40	37.6	37.6	37.6	90	34.9	2	5	315	0.00	29.624 
00:45	37.5	37.5	37.5	90	34.8	1	3	315	0.00	29.623 
00:50	37.5	37.5	37.5	90	34.8	1	3	315	0.00	29.623 
00:55	37.5	37.5	37.5	90	34.8	1	3	315	0.00	29.623 
01:00	37.3	37.3	37.3	90	34.6	1	4	315	0.00	29.621 
01:05	37.5	37.5	37.5	90	34.8	1	4	338	0.01	29.621 
01:10	37.5	37.5	37.5	91	35.1	1	4	338	0.00	29.621 
01:15	37.5	37.5	37.5	91	35.1	1	5	338	0.00	29.619 
01:20	37.5	37.5	37.5	91	35.1	1	4	338	0.00	29.619 
01:25	37.5	37.5	37.5	91	35.1	1	5	338	0.00	29.619 
01:30	37.5	37.5	37.5	91	35.1	1	4	315	0.00	29.618 
01:35	37.5	37.5	37.5	91	35.1	1	5	292	0.00	29.618 
01:40	37.6	37.6	37.6	91	35.2	1	4	315	0.00	29.618 
01:45	37.6	37.6	37.6	91	35.2	2	5	292	0.00	29.617 
01:50	37.8	37.8	37.8	91	35.4	2	4	292	0.00	29.617 
01:55	37.8	37.8	37.8	91	35.4	1	4	315	0.00	29.617 
02:00	37.9	37.9	37.9	91	35.5	1	4	292	0.00	29.616 
02:05	37.9	37.9	37.9	91	35.5	1	4	338	0.00	29.616 
02:10	37.9	37.9	37.9	91	35.5	1	4	315	0.00	29.616 
02:15	38.0	38.0	38.0	91	35.6	1	4	338	0.00	29.617 
02:20	38.0	38.0	38.0	90	35.3	2	5	315	0.00	29.617 
02:25	38.0	38.0	38.0	90	35.3	1	4	315	0.00	29.617 
02:30	38.2	38.2	38.2	90	35.5	1	3	338	0.00	29.617 
02:35	38.2	38.2	38.2	90	35.5	1	4	338	0.00	29.617 
02:40	38.2	38.2	38.2	90	35.5	1	4	315	0.00	29.617 
02:45	38.2	38.2	38.2	90	35.5	1	5	0	0.00	29.617 
02:50	38.2	38.2	38.2	90	35.5	1	5	292	0.00	29.617 
02:55	38.2	38.2	38.2	89	35.2	2	7	315	0.00	29.617 
03:00	38.3	38.3	38.3	89	35.3	2	6	315	0.00	29.617 
03:05	38.3	38.3	38.3	88	35.1	1	4	338	0.00	29.617 
03:10	38.5	38.5	38.5	88	35.3	2	4	315	0.00	29.617 
03:15	38.5	38.5	38.5	87	35.0	2	4	338	0.00	29.615 
03:20	38.5	38.5	38.5	87	35.0	2	6	338	0.00	29.615 
03:25	38.5	38.5	38.5	87	35.0	2	5	270	0.00	29.615 
03:30	38.6	38.6	38.6	86	34.8	3	5	315	0.00	29.615 
03:35	38.6	38.6	38.6	86	34.8	2	6	292	0.00	29.615 
03:40	38.6	38.6	38.6	86	34.8	1	5	315	0.00	29.615 
03:45	38.6	38.6	38.6	86	34.8	2	6	292	0.00	29.614 
03:50	38.6	38.6	38.6	85	34.5	1	5	338	0.00	29.614 
03:55	38.6	38.6	38.6	85	34.5	1	4	315	0.00	29.614 
04:00	38.6	38.6	38.6	85	34.5	2	5	292	0.00	29.614 
04:05	38.6	38.6	38.6	84	34.2	2	7	315	0.00	29.614 
04:10	38.8	38.8	38.8	84	34.4	2	6	315	0.00	29.614 
04:15	38.8	38.8	38.8	84	34.4	2	5	338	0.00	29.615 
04:20	38.8	38.8	38.8	83	34.1	2	7	315	0.00	29.615 
04:25	38.8	38.8	38.8	83	34.1	2	6	292	0.00	29.615 
04:30	38.9	38.9	38.9	82	33.9	3	7	338	0.00	29.617 
04:35	38.9	38.9	38.9	82	33.9	2	5	338	0.00	29.617 
04:40	38.9	38.9	38.9	82	33.9	1	4	292	0.00	29.617 
04:45	38.9	38.9	38.9	82	33.9	1	4	292	0.00	29.618 
04:50	38.9	38.9	38.9	82	33.9	1	4	315	0.00	29.618 
04:55	38.9	38.9	38.9	81	33.6	2	4	315	0.00	29.618 
05:00	38.9	38.9	38.9	82	33.9	1	4	315	0.00	29.625 
05:05	38.9	38.9	38.9	81	33.6	1	3	338	0.00	29.625 
05:10	39.1	39.1	39.1	82	34.1	1	5	338	0.00	29.625 
05:15	39.1	39.1	39.1	82	34.1	1	5	270	0.00	29.629 
05:20	38.9	38.9	38.9	82	33.9	2	4	315	0.00	29.629 
05:25	38.8	38.8	38.8	83	34.1	2	4	315	0.00	29.629 
05:30	38.8	38.8	38.8	83	34.1	0	2	315	0.00	29.631 
05:35	38.8	38.8	38.8	83	34.1	0	2	315	0.00	29.631 
05:40	38.8	38.8	38.8	83	34.1	1	5	0	0.00	29.631 
05:45	38.8	38.8	38.8	83	34.1	2	4	292	0.00	29.632 
05:50	38.6	38.6	38.6	84	34.2	1	4	292	0.00	29.632 
05:55	38.5	38.5	38.5	84	34.1	1	3	292	0.00	29.632 
06:00	38.3	38.3	38.3	85	34.2	1	4	292	0.00	29.634 
06:05	38.2	38.2	38.2	85	34.1	2	4	0	0.00	29.634 
06:10	38.0	38.0	38.0	86	34.2	1	3	315	0.00	29.634 
06:15	37.8	37.8	37.8	87	34.3	1	3	0	0.01	29.634 
06:20	37.6	37.6	37.6	87	34.1	1	3	338	0.00	29.634 
06:25	37.5	37.5	37.5	88	34.3	0	2	338	0.00	29.634 
06:30	37.3	37.3	37.3	88	34.1	0	2	338	0.01	29.642 
06:35	37.5	37.5	37.5	88	34.3	1	2	338	0.00	29.642 
06:40	37.5	37.5	37.5	89	34.6	1	3	338	0.00	29.642 
06:45	37.5	37.5	37.5	89	34.6	0	2	338	0.00	29.646 
06:50	37.3	37.3	37.3	89	34.4	0	2	338	0.01	29.646 
06:55	37.2	37.2	37.2	89	34.3	1	3	338	0.00	29.646 
07:00	37.2	37.2	37.2	90	34.5	1	3	338	0.00	29.649 
07:05	37.0	37.0	37.0	90	34.3	1	3	315	0.00	29.649 
07:10	37.0	37.0	37.0	90	34.3	0	2	315	0.00	29.649 
07:15	37.0	37.0	37.0	90	34.3	0	2	315	0.00	29.650 
07:20	37.0	37.0	37.0	91	34.6	1	4	292	0.01	29.650 
07:25	37.0	37.0	37.0	91	34.6	1	2	292	0.00	29.650 
07:30	37.2	37.2	37.2	91	34.8	1	3	292	0.00	29.649 
07:35	37.2	37.2	37.2	91	34.8	1	4	315	0.00	29.649 
07:40	37.2	37.2	37.2	91	34.8	1	3	315	0.00	29.649 
07:45	37.2	37.2	37.2	92	35.1	1	3	292	0.00	29.649 
07:50	37.2	37.2	37.2	92	35.1	1	3	292	0.00	29.649 
07:55	37.2	37.2	37.2	92	35.1	1	3	292	0.01	29.649 
08:00	37.2	37.2	37.2	92	35.1	1	5	292	0.00	29.651 
08:05	37.2	37.2	37.2	92	35.1	2	5	338	0.00	29.651 
08:10	37.0	37.0	37.0	92	34.9	2	4	315	0.00	29.651 
08:15	36.9	36.9	36.9	92	34.8	2	5	338	0.00	29.653 
08:20	36.9	36.9	36.9	92	34.8	2	6	270	0.01	29.653 
08:25	36.9	36.9	36.9	92	34.8	1	4	315	0.00	29.653 
08:30	36.9	36.9	36.9	92	34.8	2	4	248	0.00	29.653 
08:35	37.0	37.0	37.0	92	34.9	1	3	248	0.00	29.653 
08:40	37.0	37.0	37.0	92	34.9	1	4	248	0.00	29.653 
08:45	37.0	37.0	37.0	92	34.9	1	4	248	0.00	29.658 
08:50	37.0	37.0	37.0	92	34.9	1	3	248	0.00	29.658 
08:55	37.2	37.2	37.2	92	35.1	1	3	315	0.00	29.658 
09:00	37.2	37.2	37.2	92	35.1	1	4	315	0.00	29.663 
09:05	37.3	37.3	37.3	92	35.2	0	2	292	0.00	29.663 
09:10	37.3	37.3	37.3	92	35.2	1	4	315	0.00	29.663 
09:15	37.3	37.3	37.3	92	35.2	1	4	315	0.00	29.664 
09:20	37.3	37.3	37.3	92	35.2	1	4	315	0.00	29.664 
09:25	37.5	37.5	37.5	92	35.4	1	4	338	0.00	29.664 
09:30	37.6	37.6	37.6	92	35.5	1	3	315	0.00	29.664 
09:35	37.6	37.6	37.6	92	35.5	2	4	338	0.01	29.664 
09:40	37.6	37.6	37.6	92	35.5	2	5	315	0.00	29.664 
09:45	37.8	37.8	37.8	92	35.7	2	6	292	0.00	29.667 
09:50	37.8	37.8	37.8	91	35.4	2	6	270	0.00	29.667 
09:55	37.9	37.9	37.9	91	35.5	2	4	338	0.00	29.667 
10:00	37.9	37.9	37.9	91	35.5	1	4	270	0.00	29.669 
10:05	38.0	38.0	38.0	91	35.6	1	4	315	0.00	29.669 
10:10	38.2	38.2	38.2	91	35.8	2	5	315	0.00	29.669 
10:15	38.2	38.2	38.2	90	35.5	2	5	338	0.00	29.669 
10:20	38.2	38.2	38.2	90	35.5	2	4	270	0.00	29.669 
10:25	38.3	38.3	38.3	90	35.6	2	6	338	0.00	29.669 
10:30	38.5	38.5	38.5	90	35.8	2	5	338	0.00	29.665 
10:35	38.6	38.6	38.6	89	35.6	1	4	338	0.00	29.665 
10:40	38.6	38.6	38.6	89	35.6	2	4	315	0.00	29.665 
10:45	38.8	38.8	38.8	89	35.8	1	4	338	0.00	29.669 
10:50	38.9	38.9	38.9	89	35.9	2	6	315	0.00	29.669 
10:55	39.2	39.2	39.2	88	35.9	1	5	338	0.00	29.669 
11:00	39.3	39.3	39.3	88	36.0	2	5	292	0.00	29.672 
11:05	39.3	39.3	39.3	88	36.0	2	6	315	0.00	29.672 
11:10	39.5	39.5	39.5	87	36.0	2	4	315	0.00	29.672 
11:15	39.5	39.5	39.5	87	36.0	2	5	338	0.00	29.675 
11:20	39.6	39.6	39.6	86	35.8	3	7	270	0.00	29.675 
11:25	39.6	39.6	39.6	86	35.8	3	6	338	0.00	29.675 
11:30	39.8	39.8	39.8	86	36.0	2	5	292	0.00	29.674 
11:35	39.9	39.9	39.9	86	36.1	1	4	0	0.00	29.674 
11:40	40.1	40.1	40.1	85	36.0	2	6	338	0.00	29.674 
11:45	40.2	40.2	40.2	85	36.1	2	4	292	0.00	29.675 
11:50	40.3	40.3	40.3	85	36.2	1	4	315	0.00	29.675 
11:55	40.5	40.5	40.5	84	36.1	2	6	315	0.00	29.675 
12:00	40.6	40.6	40.6	84	36.2	2	6	315	0.00	29.678 
12:05	40.8	40.8	40.8	83	36.0	3	7	315	0.00	29.678 
12:10	40.9	40.9	40.9	83	36.1	1	4	292	0.00	29.678 
12:15	41.2	41.2	41.2	83	36.4	1	3	315	0.00	29.678 
12:20	41.3	41.3	41.3	82	36.2	2	6	315	0.00	29.678 
12:25	41.3	41.3	41.3	81	35.9	2	5	315	0.00	29.678 
12:30	41.5	41.5	41.5	80	35.8	3	6	315	0.00	29.676 
12:35	41.6	41.6	41.6	81	36.2	2	7	292	0.00	29.676 
12:40	41.9	41.9	41.9	80	36.2	2	4	270	0.00	29.676 
12:45	42.1	42.1	42.1	79	36.1	2	5	292	0.00	29.675 
12:50	42.2	42.2	42.2	79	36.2	2	4	315	0.00	29.675 
12:55	42.3	42.3	42.3	78	35.9	2	9	0	0.00	29.675 
13:00	42.5	42.5	42.5	78	36.1	2	6	315	0.00	29.673 
13:05	42.6	42.6	42.6	76	35.6	2	6	338	0.00	29.673 
13:10	42.6	42.6	42.6	75	35.2	3	9	315	0.00	29.673 
13:15	42.6	42.6	42.6	75	35.2	3	6	292	0.00	29.672 
13:20	42.8	42.8	42.8	75	35.4	2	8	292	0.00	29.672 
13:25	42.9	42.9	42.9	75	35.5	2	6	315	0.00	29.672 
13:30	43.1	43.1	43.1	74	35.4	2	7	315	0.00	29.674 
13:35	43.1	43.1	43.1	73	35.0	3	7	315	0.00	29.674 
13:40	43.1	43.1	43.1	74	35.4	3	9	315	0.00	29.674 
13:45	43.1	40.9	43.1	73	35.0	4	11	315	0.00	29.676 
13:50	43.2	43.2	43.2	73	35.1	3	5	338	0.00	29.676 
13:55	43.2	41.0	43.2	73	35.1	4	6	315	0.00	29.676 
14:00	43.3	43.3	43.3	73	35.2	2	7	292	0.00	29.676 
14:05	43.5	43.5	43.5	73	35.4	2	6	315	0.00	29.676 
14:10	43.6	43.6	43.6	72	35.2	3	6	338	0.00	29.676 
14:15	43.6	43.6	43.6	72	35.2	3	9	315	0.00	29.675 
14:20	43.6	43.6	43.6	72	35.2	3	5	292	0.00	29.675 
14:25	43.6	43.6	43.6	73	35.5	2	5	338	0.00	29.675 
14:30	43.6	43.6	43.6	73	35.5	2	5	315	0.00	29.675 
14:35	43.5	41.4	43.5	72	35.1	4	10	315	0.00	29.675 
14:40	43.6	43.6	43.6	72	35.2	3	9	338	0.00	29.675 
14:45	43.8	43.8	43.8	72	35.4	2	6	292	0.00	29.672 
14:50	43.8	43.8	43.8	71	35.0	3	7	248	0.00	29.672 
14:55	43.9	43.9	43.9	71	35.1	2	5	315	0.00	29.672 
15:00	44.1	44.1	44.1	70	35.0	3	7	270	0.00	29.673 
15:05	44.2	44.2	44.2	72	35.8	1	4	270	0.00	29.673 
15:10	44.1	44.1	44.1	71	35.3	3	5	270	0.00	29.673 
15:15	44.2	44.2	44.2	72	35.8	2	5	315	0.00	29.675 
15:20	44.2	44.2	44.2	71	35.4	2	5	315	0.00	29.675 
15:25	44.1	44.1	44.1	72	35.7	3	6	270	0.00	29.675 
15:30	43.9	43.9	43.9	73	35.8	2	4	292	0.00	29.675 
15:35	43.9	43.9	43.9	72	35.5	2	5	315	0.00	29.675 
15:40	44.1	44.1	44.1	77	37.4	2	4	292	0.00	29.675 
15:45	43.9	43.9	43.9	73	35.8	3	7	338	0.00	29.675 
15:50	43.9	43.9	43.9	72	35.5	2	5	315	0.00	29.675 
15:55	43.9	43.9	43.9	73	35.8	1	4	338	0.00	29.675 
16:00	43.8	43.8	43.8	72	35.4	3	6	270	0.00	29.679 
16:05	43.8	41.7	43.8	72	35.4	4	7	338	0.00	29.679 
16:10	43.6	43.6	43.6	73	35.5	2	6	315	0.00	29.679 
16:15	43.6	43.6	43.6	75	36.2	3	6	315	0.00	29.685 
16:20	43.5	43.5	43.5	75	36.1	2	5	338	0.00	29.685 
16:25	43.5	43.5	43.5	75	36.1	2	6	292	0.00	29.685 
16:30	43.5	41.4	43.5	74	35.8	4	8	270	0.00	29.688 
16:35	43.3	43.3	43.3	76	36.3	3	6	270	0.00	29.688 
16:40	42.9	42.9	42.9	78	36.5	3	5	270	0.00	29.688 
16:45	42.9	42.9	42.9	79	36.8	3	5	315	0.00	29.691 
16:50	42.8	42.8	42.8	79	36.7	3	9	338	0.00	29.691 
16:55	42.6	39.5	42.6	79	36.6	5	11	270	0.00	29.691 
17:00	42.6	42.6	42.6	80	36.9	3	7	270	0.00	29.696 
17:05	42.5	42.5	42.5	81	37.1	3	6	292	0.00	29.696 
17:10	42.5	42.5	42.5	81	37.1	2	6	338	0.00	29.696 
17:15	42.3	42.3	42.3	82	37.2	3	5	315	0.00	29.705 
17:20	42.3	42.3	42.3	83	37.5	2	6	270	0.00	29.705 
17:25	42.2	42.2	42.2	84	37.7	2	4	315	0.00	29.705 
17:30	42.1	42.1	42.1	85	37.9	2	5	270	0.00	29.708 
17:35	41.9	41.9	41.9	86	38.0	2	7	338	0.00	29.708 
17:40	41.8	41.8	41.8	87	38.2	2	4	292	0.00	29.708 
17:45	41.6	41.6	41.6	88	38.3	2	5	270	0.00	29.712 
17:50	41.6	41.6	41.6	88	38.3	2	4	292	0.00	29.712 
17:55	41.5	41.5	41.5	89	38.5	2	5	270	0.00	29.712 
18:00	41.2	41.2	41.2	89	38.2	3	6	315	0.00	29.721 
18:05	41.1	41.1	41.1	90	38.4	1	5	292	0.00	29.721 
18:10	41.1	41.1	41.1	90	38.4	2	5	292	0.00	29.721 
18:15	41.1	41.1	41.1	90	38.4	2	4	292	0.00	29.726 
18:20	40.8	40.8	40.8	90	38.1	2	5	270	0.00	29.726 
18:25	40.6	40.6	40.6	91	38.2	2	5	338	0.00	29.726 
18:30	40.5	40.5	40.5	91	38.1	2	5	315	0.00	29.731 
18:35	40.5	40.5	40.5	91	38.1	2	4	292	0.00	29.731 
18:40	40.5	40.5	40.5	91	38.1	2	5	292	0.00	29.731 
18:45	40.3	40.3	40.3	91	37.9	2	5	270	0.00	29.737 
18:50	40.2	40.2	40.2	91	37.8	3	6	315	0.00	29.737 
18:55	40.2	40.2	40.2	91	37.8	2	5	315	0.00	29.737 
19:00	40.1	40.1	40.1	91	37.7	2	5	315	0.00	29.741 
19:05	40.1	40.1	40.1	91	37.7	2	6	315	0.00	29.741 
19:10	40.2	40.2	40.2	91	37.8	3	5	270	0.00	29.741 
19:15	40.2	40.2	40.2	91	37.8	2	5	270	0.00	29.743 
19:20	40.2	40.2	40.2	91	37.8	2	5	270	0.00	29.743 
19:25	40.1	40.1	40.1	91	37.7	2	4	292	0.00	29.743 
19:30	40.1	40.1	40.1	91	37.7	2	5	315	0.00	29.743 
19:35	39.9	39.9	39.9	91	37.5	3	6	292	0.00	29.743 
19:40	39.9	39.9	39.9	91	37.5	2	6	338	0.00	29.743 
19:45	39.9	39.9	39.9	91	37.5	2	5	292	0.00	29.746 
19:50	39.9	39.9	39.9	91	37.5	1	4	292	0.00	29.746 
19:55	39.9	39.9	39.9	91	37.5	2	6	338	0.00	29.746 
20:00	39.9	39.9	39.9	91	37.5	2	3	315	0.00	29.750 
20:05	39.9	39.9	39.9	91	37.5	3	6	270	0.00	29.750 
20:10	39.9	39.9	39.9	91	37.5	3	6	270	0.00	29.750 
20:15	39.9	39.9	39.9	90	37.2	3	5	315	0.00	29.757 
20:20	40.1	40.1	40.1	90	37.4	2	6	292	0.00	29.757 
20:25	40.1	40.1	40.1	90	37.4	2	6	338	0.00	29.757 
20:30	40.1	40.1	40.1	90	37.4	2	6	338	0.00	29.761 
20:35	40.1	40.1	40.1	90	37.4	1	4	315	0.00	29.761 
20:40	40.1	40.1	40.1	90	37.4	2	4	270	0.00	29.761 
20:45	40.1	40.1	40.1	90	37.4	1	3	270	0.00	29.762 
20:50	40.1	40.1	40.1	90	37.4	2	4	270	0.00	29.762 
20:55	40.1	40.1	40.1	90	37.4	1	4	270	0.00	29.762 
21:00	40.1	40.1	40.1	90	37.4	2	7	292	0.00	29.763 
21:05	40.2	40.2	40.2	89	37.2	2	3	315	0.00	29.763 
21:10	40.3	40.3	40.3	89	37.3	2	5	338	0.00	29.763 
21:15	40.3	40.3	40.3	88	37.0	2	5	338	0.00	29.766 
21:20	40.3	40.3	40.3	88	37.0	2	5	338	0.00	29.766 
21:25	40.5	40.5	40.5	88	37.2	1	4	270	0.00	29.766 
21:30	40.5	40.5	40.5	88	37.2	2	5	315	0.00	29.767 
21:35	40.5	40.5	40.5	88	37.2	2	4	292	0.00	29.767 
21:40	40.5	40.5	40.5	88	37.2	2	5	292	0.00	29.767 
21:45	40.3	40.3	40.3	88	37.0	1	4	292	0.00	29.768 
21:50	40.3	40.3	40.3	88	37.0	2	4	315	0.01	29.768 
21:55	40.2	40.2	40.2	89	37.2	1	3	315	0.00	29.768 
22:00	40.2	40.2	40.2	89	37.2	2	5	292	0.00	29.770 
22:05	40.2	40.2	40.2	90	37.5	1	5	292	0.00	29.770 
22:10	40.2	40.2	40.2	90	37.5	2	5	338	0.00	29.770 
22:15	40.2	40.2	40.2	90	37.5	1	3	338	0.00	29.768 
22:20	40.2	40.2	40.2	90	37.5	1	3	315	0.00	29.768 
22:25	40.2	40.2	40.2	90	37.5	1	5	315	0.00	29.768 
22:30	40.3	40.3	40.3	90	37.6	2	5	338	0.00	29.770 
22:35	40.3	40.3	40.3	90	37.6	2	4	270	0.00	29.770 
22:40	40.5	40.5	40.5	89	37.5	1	5	315	0.00	29.770 
22:45	40.6	40.6	40.6	89	37.6	2	4	338	0.00	29.769 
22:50	40.6	40.6	40.6	88	37.3	2	6	338	0.00	29.769 
22:55	40.6	40.6	40.6	88	37.3	2	4	315	0.00	29.769 
23:00	40.6	40.6	40.6	88	37.3	2	4	315	0.00	29.771 
23:05	40.6	40.6	40.6	88	37.3	1	3	338	0.00	29.771 
23:10	40.6	40.6	40.6	88	37.3	1	3	338	0.00	29.771 
23:15	40.6	40.6	40.6	88	37.3	1	3	292	0.00	29.769 
23:20	40.6	40.6	40.6	88	37.3	1	5	338	0.00	29.769 
23:25	40.5	40.5	40.5	88	37.2	1	4	270	0.00	29.769 
23:30	40.6	40.6	40.6	88	37.3	1	6	315	0.00	29.769 
23:35	40.6	40.6	40.6	88	37.3	1	5	292	0.00	29.769 
23:40	40.6	40.6	40.6	88	37.3	1	4	292	0.00	29.769 
23:45	40.6	40.6	40.6	88	37.3	1	3	292	0.00	29.769 
23:50	40.6	40.6	40.6	88	37.3	0	1	292	0.00	29.769 
23:55	40.6	40.6	40.6	88	37.3	0	2	292	0.00	29.769 

CoCoRaHS
IN-AL-39
A2 Web Hosting
Creative Commons License
GoDaddy
search engine by freefind advanced

loaded 2018-11-16 01:07:52 • last modified 2010-11-18 10:43:29
Privacy PolicyDisclaimer
• wx.awcolley.com is powered by PmWiki v.2002016 •
• all content (unless otherwise noted) © 2018 A W Colley